createdAt,value
2024-04-26T00:00:35.303Z,955.9200
2024-04-26T00:01:37.479Z,955.8800
2024-04-26T00:02:39.652Z,955.8800
2024-04-26T00:03:39.673Z,955.8300
2024-04-26T00:04:41.659Z,955.8300
2024-04-26T00:05:43.792Z,955.8500
2024-04-26T00:06:45.999Z,955.8600
2024-04-26T00:07:48.053Z,955.8800
2024-04-26T00:08:50.260Z,955.8500
2024-04-26T00:09:52.370Z,955.8800
2024-04-26T00:10:54.559Z,955.8300
2024-04-26T00:11:56.765Z,955.8100
2024-04-26T00:12:58.900Z,955.7900
2024-04-26T00:14:01.081Z,955.7500
2024-04-26T00:15:03.388Z,955.7500
2024-04-26T00:16:05.443Z,955.7100
2024-04-26T00:17:07.612Z,955.7100
2024-04-26T00:18:09.960Z,955.6900
2024-04-26T00:19:11.939Z,955.6500
2024-04-26T00:20:14.269Z,955.5900
2024-04-26T00:21:16.296Z,955.5900
2024-04-26T00:22:18.470Z,955.6300
2024-04-26T00:23:20.595Z,955.5900
2024-04-26T00:24:22.742Z,955.6300
2024-04-26T00:25:24.897Z,955.6100
2024-04-26T00:26:27.070Z,955.6500
2024-04-26T00:27:29.200Z,955.6500
2024-04-26T00:28:31.294Z,955.6900
2024-04-26T00:29:33.481Z,955.6700
2024-04-26T00:30:35.546Z,955.6700
2024-04-26T00:31:37.652Z,955.6700
2024-04-26T00:32:37.775Z,955.6100
2024-04-26T00:33:39.907Z,955.6100
2024-04-26T00:34:41.765Z,955.6100
2024-04-26T00:35:43.915Z,955.6100
2024-04-26T00:36:46.046Z,955.5900
2024-04-26T00:37:48.178Z,955.5700
2024-04-26T00:38:50.428Z,955.5700
2024-04-26T00:39:52.477Z,955.5500
2024-04-26T00:40:54.602Z,955.5500
2024-04-26T00:41:56.883Z,955.5100
2024-04-26T00:42:58.906Z,955.5500
2024-04-26T00:44:01.016Z,955.5100
2024-04-26T00:45:03.106Z,955.5300
2024-04-26T00:46:05.226Z,955.5100
2024-04-26T00:47:07.372Z,955.5300
2024-04-26T00:48:09.608Z,955.5100
2024-04-26T00:49:11.720Z,955.5100
2024-04-26T00:50:13.811Z,955.4900
2024-04-26T00:51:15.934Z,955.4500
2024-04-26T00:52:18.086Z,955.4700
2024-04-26T00:53:20.341Z,955.4700
2024-04-26T00:54:22.357Z,955.4900
2024-04-26T00:55:24.439Z,955.4300
2024-04-26T00:56:26.542Z,955.4500
2024-04-26T00:57:28.571Z,955.4500
2024-04-26T00:58:30.658Z,955.4700
2024-04-26T00:59:32.898Z,955.4100
2024-04-26T01:00:35.090Z,955.3900
2024-04-26T01:01:37.198Z,955.4100
2024-04-26T01:02:39.386Z,955.3900
2024-04-26T01:03:41.545Z,955.3900
2024-04-26T01:04:43.755Z,955.3600
2024-04-26T01:05:45.870Z,955.3800
2024-04-26T01:06:45.770Z,955.3400
2024-04-26T01:07:47.887Z,955.3800
2024-04-26T01:08:49.979Z,955.3600
2024-04-26T01:09:52.096Z,955.3600
2024-04-26T01:10:54.304Z,955.3400
2024-04-26T01:11:56.450Z,955.3200
2024-04-26T01:12:58.613Z,955.3200
2024-04-26T01:14:00.807Z,955.3200
2024-04-26T01:15:02.932Z,955.3400
2024-04-26T01:16:04.968Z,955.3600
2024-04-26T01:17:07.078Z,955.3600
2024-04-26T01:18:09.227Z,955.3600
2024-04-26T01:19:11.329Z,955.3400
2024-04-26T01:20:13.409Z,955.3200
2024-04-26T01:21:15.525Z,955.2800
2024-04-26T01:22:17.657Z,955.2800
2024-04-26T01:23:19.827Z,955.2600
2024-04-26T01:24:21.931Z,955.2400
2024-04-26T01:25:24.065Z,955.2600
2024-04-26T01:26:26.148Z,955.2800
2024-04-26T01:27:28.211Z,955.2400
2024-04-26T01:28:30.273Z,955.2400
2024-04-26T01:29:32.405Z,955.2800
2024-04-26T01:30:34.466Z,955.2600
2024-04-26T01:31:36.551Z,955.2800
2024-04-26T01:32:38.759Z,955.2800
2024-04-26T01:33:40.829Z,955.3000
2024-04-26T01:34:42.925Z,955.3000
2024-04-26T01:35:45.074Z,955.3200
2024-04-26T01:36:47.183Z,955.3200
2024-04-26T01:37:49.328Z,955.3600
2024-04-26T01:38:51.452Z,955.3600
2024-04-26T01:39:53.603Z,955.3800
2024-04-26T01:40:55.734Z,955.3800
2024-04-26T01:41:57.970Z,955.3600
2024-04-26T01:43:00.076Z,955.3400
2024-04-26T01:44:00.096Z,955.3600
2024-04-26T01:45:02.360Z,955.3200
2024-04-26T01:46:04.424Z,955.3200
2024-04-26T01:47:06.815Z,955.3200
2024-04-26T01:48:08.938Z,955.3000
2024-04-26T01:49:10.936Z,955.2800
2024-04-26T01:50:13.081Z,955.2600
2024-04-26T01:51:15.194Z,955.3000
2024-04-26T01:52:17.335Z,955.2800
2024-04-26T01:53:19.517Z,955.2800
2024-04-26T01:54:21.613Z,955.2800
2024-04-26T01:55:23.680Z,955.3200
2024-04-26T01:56:25.748Z,955.3000
2024-04-26T01:57:27.758Z,955.3000
2024-04-26T01:58:29.822Z,955.2600
2024-04-26T01:59:31.925Z,955.2400
2024-04-26T02:00:34.029Z,955.2400
2024-04-26T02:01:36.066Z,955.2400
2024-04-26T02:02:38.438Z,955.2400
2024-04-26T02:03:40.499Z,955.2400
2024-04-26T02:04:42.544Z,955.2400
2024-04-26T02:05:44.768Z,955.2400
2024-04-26T02:06:46.818Z,955.2400
2024-04-26T02:07:48.964Z,955.2200
2024-04-26T02:08:51.149Z,955.2000
2024-04-26T02:09:53.239Z,955.2200
2024-04-26T02:10:55.454Z,955.2200
2024-04-26T02:11:57.541Z,955.2200
2024-04-26T02:12:59.580Z,955.2200
2024-04-26T02:14:01.671Z,955.2200
2024-04-26T02:15:01.674Z,955.2400
2024-04-26T02:16:03.792Z,955.2600
2024-04-26T02:17:06.016Z,955.2600
2024-04-26T02:18:08.118Z,955.3000
2024-04-26T02:19:10.238Z,955.2800
2024-04-26T02:20:12.345Z,955.2800
2024-04-26T02:21:14.527Z,955.2800
2024-04-26T02:22:16.526Z,955.3000
2024-04-26T02:23:18.601Z,955.2800
2024-04-26T02:24:20.691Z,955.2800
2024-04-26T02:25:22.814Z,955.2800
2024-04-26T02:26:24.960Z,955.2800
2024-04-26T02:27:27.030Z,955.3000
2024-04-26T02:28:29.143Z,955.3000
2024-04-26T02:29:31.296Z,955.3000
2024-04-26T02:30:33.386Z,955.3000
2024-04-26T02:31:35.483Z,955.2600
2024-04-26T02:32:35.625Z,955.2200
2024-04-26T02:33:37.589Z,955.2000
2024-04-26T02:34:39.533Z,955.2000
2024-04-26T02:35:41.643Z,955.1800
2024-04-26T02:36:43.772Z,955.1800
2024-04-26T02:37:45.881Z,955.1800
2024-04-26T02:38:48.041Z,955.2000
2024-04-26T02:39:50.184Z,955.1600
2024-04-26T02:40:52.288Z,955.1800
2024-04-26T02:41:54.499Z,955.1800
2024-04-26T02:42:56.543Z,955.1800
2024-04-26T02:43:58.698Z,955.1800
2024-04-26T02:45:01.063Z,955.1400
2024-04-26T02:46:02.980Z,955.1600
2024-04-26T02:47:05.189Z,955.1600
2024-04-26T02:48:07.327Z,955.1600
2024-04-26T02:49:09.395Z,955.1600
2024-04-26T02:50:11.481Z,955.1600
2024-04-26T02:51:13.703Z,955.1600
2024-04-26T02:52:15.712Z,955.1600
2024-04-26T02:53:17.814Z,955.1800
2024-04-26T02:54:20.009Z,955.2200
2024-04-26T02:55:22.054Z,955.2400
2024-04-26T02:56:24.145Z,955.2400
2024-04-26T02:57:26.216Z,955.2200
2024-04-26T02:58:28.292Z,955.2400
2024-04-26T02:59:28.269Z,955.2200
2024-04-26T03:00:30.406Z,955.2400
2024-04-26T03:01:32.589Z,955.2000
2024-04-26T03:02:34.901Z,955.2400
2024-04-26T03:03:36.949Z,955.2200
2024-04-26T03:04:38.899Z,955.2800
2024-04-26T03:05:41.075Z,955.2800
2024-04-26T03:06:43.179Z,955.2800
2024-04-26T03:07:45.320Z,955.2800
2024-04-26T03:08:47.463Z,955.2800
2024-04-26T03:09:49.593Z,955.3000
2024-04-26T03:10:51.724Z,955.2600
2024-04-26T03:11:54.026Z,955.2400
2024-04-26T03:12:56.082Z,955.2800
2024-04-26T03:13:58.143Z,955.2800
2024-04-26T03:15:00.378Z,955.2800
2024-04-26T03:16:02.485Z,955.2800
2024-04-26T03:17:04.519Z,955.3000
2024-04-26T03:18:06.635Z,955.3000
2024-04-26T03:19:08.734Z,955.3200
2024-04-26T03:20:10.737Z,955.3200
2024-04-26T03:21:12.807Z,955.3600
2024-04-26T03:22:14.891Z,955.3600
2024-04-26T03:23:16.920Z,955.3400
2024-04-26T03:24:19.078Z,955.3600
2024-04-26T03:25:21.071Z,955.3800
2024-04-26T03:26:23.213Z,955.3800
2024-04-26T03:27:25.283Z,955.3900
2024-04-26T03:28:27.384Z,955.3900
2024-04-26T03:29:29.501Z,955.4300
2024-04-26T03:30:31.562Z,955.3900
2024-04-26T03:31:33.589Z,955.3900
2024-04-26T03:32:35.672Z,955.3900
2024-04-26T03:33:37.831Z,955.4300
2024-04-26T03:34:39.737Z,955.4100
2024-04-26T03:35:41.875Z,955.4500
2024-04-26T03:36:44.014Z,955.4300
2024-04-26T03:37:46.163Z,955.4700
2024-04-26T03:38:48.300Z,955.4900
2024-04-26T03:39:50.407Z,955.4900
2024-04-26T03:40:52.538Z,955.5300
2024-04-26T03:41:54.749Z,955.5700
2024-04-26T03:42:56.899Z,955.5500
2024-04-26T03:43:58.947Z,955.5300
2024-04-26T03:45:01.187Z,955.4500
2024-04-26T03:46:03.201Z,955.4300
2024-04-26T03:47:05.338Z,955.4700
2024-04-26T03:48:07.605Z,955.4700
2024-04-26T03:49:09.759Z,955.5100
2024-04-26T03:50:11.737Z,955.5500
2024-04-26T03:51:13.915Z,955.4700
2024-04-26T03:52:16.028Z,955.3800
2024-04-26T03:53:18.165Z,955.3400
2024-04-26T03:54:20.356Z,955.3000
2024-04-26T03:55:22.468Z,955.2800
2024-04-26T03:56:24.640Z,955.2400
2024-04-26T03:57:26.784Z,955.2400
2024-04-26T03:58:26.815Z,955.1400
2024-04-26T03:59:29.085Z,955.1200
2024-04-26T04:00:31.167Z,955.1200
2024-04-26T04:01:33.359Z,955.0800
2024-04-26T04:02:35.623Z,955.0400
2024-04-26T04:03:37.978Z,955.0200
2024-04-26T04:04:39.930Z,955.0400
2024-04-26T04:05:42.104Z,955.0200
2024-04-26T04:06:44.258Z,955.0600
2024-04-26T04:07:47.515Z,955.0600
2024-04-26T04:08:48.814Z,955.0800
2024-04-26T04:09:50.983Z,955.1000
2024-04-26T04:10:53.230Z,955.1000
2024-04-26T04:11:55.593Z,955.1000
2024-04-26T04:12:55.575Z,955.1200
2024-04-26T04:13:57.789Z,955.1000
2024-04-26T04:15:00.128Z,955.0800
2024-04-26T04:16:02.269Z,955.1000
2024-04-26T04:17:04.569Z,955.0600
2024-04-26T04:18:06.927Z,955.0200
2024-04-26T04:19:09.181Z,954.9600
2024-04-26T04:20:11.177Z,954.9200
2024-04-26T04:21:13.395Z,954.8300
2024-04-26T04:22:15.593Z,954.7500
2024-04-26T04:23:17.770Z,954.6900
2024-04-26T04:24:19.966Z,954.6900
2024-04-26T04:25:22.138Z,954.6900
2024-04-26T04:26:24.314Z,954.7100
2024-04-26T04:27:26.452Z,954.7300
2024-04-26T04:28:28.604Z,954.7900
2024-04-26T04:29:30.811Z,954.8700
2024-04-26T04:30:31.405Z,954.9200
2024-04-26T04:31:32.981Z,954.9200
2024-04-26T04:32:35.434Z,954.9400
2024-04-26T04:33:37.553Z,954.9400
2024-04-26T04:34:39.820Z,954.9600
2024-04-26T04:35:41.788Z,955.0200
2024-04-26T04:36:43.869Z,955.0400
2024-04-26T04:37:46.088Z,955.0200
2024-04-26T04:38:48.339Z,955.0200
2024-04-26T04:39:50.516Z,955.0400
2024-04-26T04:40:52.745Z,955.0800
2024-04-26T04:41:55.005Z,955.0800
2024-04-26T04:42:57.127Z,955.1000
2024-04-26T04:43:59.306Z,955.1200
2024-04-26T04:45:01.608Z,955.1400
2024-04-26T04:46:03.725Z,955.1400
2024-04-26T04:47:05.829Z,955.1400
2024-04-26T04:48:07.920Z,955.1400
2024-04-26T04:49:09.981Z,955.1200
2024-04-26T04:50:09.842Z,955.1400
2024-04-26T04:51:12.022Z,955.1600
2024-04-26T04:52:14.009Z,955.1400
2024-04-26T04:53:16.065Z,955.1600
2024-04-26T04:54:18.109Z,955.1600
2024-04-26T04:55:20.087Z,955.1600
2024-04-26T04:56:22.159Z,955.1600
2024-04-26T04:57:24.269Z,955.1400
2024-04-26T04:58:26.414Z,955.1000
2024-04-26T04:59:28.644Z,955.1200
2024-04-26T05:00:31.079Z,955.1200
2024-04-26T05:01:33.033Z,955.1200
2024-04-26T05:02:35.277Z,955.1000
2024-04-26T05:03:37.627Z,955.1400
2024-04-26T05:04:39.632Z,955.1200
2024-04-26T05:05:41.766Z,955.1400
2024-04-26T05:06:43.832Z,955.1600
2024-04-26T05:07:45.874Z,955.1800
2024-04-26T05:08:48.035Z,955.1400
2024-04-26T05:09:50.134Z,955.1600
2024-04-26T05:10:52.293Z,955.1800
2024-04-26T05:11:54.676Z,955.1400
2024-04-26T05:12:56.643Z,955.2000
2024-04-26T05:13:58.665Z,955.1800
2024-04-26T05:15:00.864Z,955.1800
2024-04-26T05:16:02.845Z,955.1600
2024-04-26T05:17:04.820Z,955.1800
2024-04-26T05:18:06.035Z,955.1600
2024-04-26T05:19:08.257Z,955.1800
2024-04-26T05:20:10.225Z,955.1400
2024-04-26T05:21:12.442Z,955.1800
2024-04-26T05:22:14.530Z,955.1800
2024-04-26T05:23:16.658Z,955.2200
2024-04-26T05:24:18.842Z,955.2200
2024-04-26T05:25:20.894Z,955.2200
2024-04-26T05:26:23.164Z,955.2200
2024-04-26T05:27:25.183Z,955.2200
2024-04-26T05:28:27.282Z,955.2000
2024-04-26T05:29:29.455Z,955.2000
2024-04-26T05:30:31.536Z,955.2600
2024-04-26T05:31:33.709Z,955.2600
2024-04-26T05:32:36.010Z,955.2400
2024-04-26T05:33:38.201Z,955.2600
2024-04-26T05:34:40.135Z,955.2200
2024-04-26T05:35:42.243Z,955.2200
2024-04-26T05:36:44.330Z,955.2000
2024-04-26T05:37:46.490Z,955.2600
2024-04-26T05:38:48.563Z,955.2600
2024-04-26T05:39:50.639Z,955.2400
2024-04-26T05:40:52.781Z,955.2400
2024-04-26T05:41:54.889Z,955.2200
2024-04-26T05:42:57.053Z,955.2400
2024-04-26T05:43:59.177Z,955.2600
2024-04-26T05:45:01.431Z,955.2600
2024-04-26T05:46:03.400Z,955.2600
2024-04-26T05:47:05.618Z,955.2800
2024-04-26T05:48:07.737Z,955.3000
2024-04-26T05:49:09.808Z,955.2800
2024-04-26T05:50:12.807Z,955.3200
2024-04-26T05:51:14.030Z,955.3400
2024-04-26T05:52:16.076Z,955.3600
2024-04-26T05:53:18.208Z,955.3400
2024-04-26T05:54:20.370Z,955.3600
2024-04-26T05:55:22.447Z,955.3600
2024-04-26T05:56:24.572Z,955.3800
2024-04-26T05:57:26.708Z,955.3900
2024-04-26T05:58:28.804Z,955.3400
2024-04-26T05:59:30.993Z,955.3800
2024-04-26T06:00:33.048Z,955.3900
2024-04-26T06:01:35.072Z,955.4100
2024-04-26T06:02:37.349Z,955.4100
2024-04-26T06:03:39.730Z,955.3900
2024-04-26T06:04:41.413Z,955.4100
2024-04-26T06:05:43.529Z,955.4700
2024-04-26T06:06:45.589Z,955.4700
2024-04-26T06:07:47.690Z,955.4700
2024-04-26T06:08:49.910Z,955.4700
2024-04-26T06:09:51.914Z,955.4900
2024-04-26T06:10:54.074Z,955.5100
2024-04-26T06:11:56.283Z,955.5300
2024-04-26T06:12:58.622Z,955.5500
2024-04-26T06:14:00.361Z,955.5900
2024-04-26T06:15:02.572Z,955.6500
2024-04-26T06:16:04.640Z,955.6300
2024-04-26T06:17:06.846Z,955.6700
2024-04-26T06:18:09.166Z,955.7100
2024-04-26T06:19:11.167Z,955.7300
2024-04-26T06:20:13.194Z,955.7500
2024-04-26T06:21:15.479Z,955.7300
2024-04-26T06:22:17.494Z,955.7500
2024-04-26T06:23:17.520Z,955.7500
2024-04-26T06:24:19.725Z,955.7900
2024-04-26T06:25:21.866Z,955.7700
2024-04-26T06:26:24.109Z,955.8100
2024-04-26T06:27:26.208Z,955.7900
2024-04-26T06:28:28.394Z,955.8100
2024-04-26T06:29:30.666Z,955.8100
2024-04-26T06:30:32.686Z,955.8100
2024-04-26T06:31:34.792Z,955.7900
2024-04-26T06:32:37.238Z,955.7900
2024-04-26T06:33:39.171Z,955.8300
2024-04-26T06:34:41.183Z,955.8100
2024-04-26T06:35:43.271Z,955.8100
2024-04-26T06:36:45.376Z,955.8500
2024-04-26T06:37:47.489Z,955.8500
2024-04-26T06:38:49.817Z,955.8600
2024-04-26T06:39:51.800Z,955.8800
2024-04-26T06:40:53.918Z,955.9000
2024-04-26T06:41:56.103Z,955.9400
2024-04-26T06:42:58.141Z,955.9600
2024-04-26T06:44:07.280Z,955.9600
2024-04-26T06:45:02.559Z,955.9800
2024-04-26T06:46:04.580Z,955.9800
2024-04-26T06:47:06.667Z,956.0200
2024-04-26T06:48:08.916Z,956.0600
2024-04-26T06:49:13.309Z,956.1000
2024-04-26T06:50:12.967Z,956.1000
2024-04-26T06:51:15.074Z,956.0800
2024-04-26T06:52:17.140Z,956.0800
2024-04-26T06:53:19.257Z,956.0800
2024-04-26T06:54:21.415Z,956.0800
2024-04-26T06:55:23.588Z,956.1200
2024-04-26T06:56:25.843Z,956.1000
2024-04-26T06:57:27.830Z,956.1000
2024-04-26T06:58:30.015Z,956.1200
2024-04-26T06:59:32.208Z,956.1400
2024-04-26T07:00:34.342Z,956.1400
2024-04-26T07:01:36.592Z,956.1600
2024-04-26T07:02:38.802Z,956.1000
2024-04-26T07:03:40.877Z,956.0800
2024-04-26T07:04:43.045Z,956.0600
2024-04-26T07:05:44.901Z,956.0400
2024-04-26T07:06:46.959Z,956.0400
2024-04-26T07:07:46.958Z,956.0400
2024-04-26T07:08:49.103Z,956.0200
2024-04-26T07:09:51.219Z,956.0200
2024-04-26T07:10:53.423Z,956.0400
2024-04-26T07:11:55.521Z,956.0200
2024-04-26T07:12:57.722Z,956.0400
2024-04-26T07:13:59.942Z,956.0600
2024-04-26T07:15:02.308Z,956.0800
2024-04-26T07:16:11.096Z,956.0800
2024-04-26T07:17:06.628Z,956.0800
2024-04-26T07:18:09.122Z,956.1000
2024-04-26T07:19:08.988Z,956.0800
2024-04-26T07:20:11.157Z,956.1000
2024-04-26T07:21:13.205Z,956.0800
2024-04-26T07:22:15.336Z,956.0800
2024-04-26T07:23:17.528Z,956.1000
2024-04-26T07:24:19.706Z,956.1000
2024-04-26T07:25:21.837Z,956.1200
2024-04-26T07:26:24.041Z,956.0800
2024-04-26T07:27:26.129Z,956.0600
2024-04-26T07:28:28.302Z,956.0600
2024-04-26T07:29:30.598Z,956.0600
2024-04-26T07:30:32.690Z,956.0400
2024-04-26T07:31:32.741Z,956.0800
2024-04-26T07:32:35.109Z,956.1000
2024-04-26T07:33:37.122Z,956.0600
2024-04-26T07:34:39.200Z,956.0600
2024-04-26T07:35:41.504Z,956.0400
2024-04-26T07:36:43.503Z,956.0600
2024-04-26T07:37:45.640Z,956.0200
2024-04-26T07:38:47.809Z,956.0600
2024-04-26T07:39:49.904Z,956.0400
2024-04-26T07:40:52.033Z,956.0400
2024-04-26T07:41:54.274Z,956.0400
2024-04-26T07:42:56.360Z,956.0600
2024-04-26T07:43:58.509Z,956.0200
2024-04-26T07:44:58.645Z,956.0400
2024-04-26T07:46:00.627Z,956.0200
2024-04-26T07:47:02.715Z,956.0200
2024-04-26T07:48:05.160Z,956.0200
2024-04-26T07:49:09.413Z,956.0200
2024-04-26T07:50:09.222Z,956.0200
2024-04-26T07:51:11.420Z,956.0200
2024-04-26T07:52:13.368Z,956.0000
2024-04-26T07:53:15.493Z,956.0200
2024-04-26T07:54:17.742Z,956.0200
2024-04-26T07:55:19.837Z,956.0400
2024-04-26T07:56:21.891Z,956.0400
2024-04-26T07:57:24.038Z,956.0400
2024-04-26T07:58:26.158Z,956.0000
2024-04-26T07:59:28.326Z,956.0000
2024-04-26T08:00:28.582Z,956.0000
2024-04-26T08:01:30.535Z,956.0000
2024-04-26T08:02:32.799Z,955.9800
2024-04-26T08:03:35.236Z,955.9000
2024-04-26T08:04:37.104Z,955.9200
2024-04-26T08:05:39.331Z,955.8600
2024-04-26T08:06:41.447Z,955.8500
2024-04-26T08:07:43.636Z,955.8500
2024-04-26T08:08:45.830Z,955.8300
2024-04-26T08:09:47.962Z,955.8600
2024-04-26T08:10:50.149Z,955.8800
2024-04-26T08:11:52.340Z,955.9200
2024-04-26T08:12:54.625Z,955.9000
2024-04-26T08:13:56.640Z,955.9000
2024-04-26T08:14:58.893Z,955.8600
2024-04-26T08:16:01.013Z,955.8600
2024-04-26T08:17:03.242Z,955.8800
2024-04-26T08:18:05.734Z,955.9000
2024-04-26T08:19:07.660Z,955.9000
2024-04-26T08:20:09.754Z,955.8800
2024-04-26T08:21:11.973Z,955.8800
2024-04-26T08:22:14.136Z,955.8800
2024-04-26T08:23:16.328Z,955.8800
2024-04-26T08:24:18.516Z,955.8600
2024-04-26T08:25:26.991Z,955.8600
2024-04-26T08:26:22.732Z,955.9000
2024-04-26T08:27:24.870Z,955.9200
2024-04-26T08:28:26.991Z,955.9000
2024-04-26T08:29:29.141Z,955.9000
2024-04-26T08:30:31.254Z,955.9400
2024-04-26T08:31:33.444Z,955.9400
2024-04-26T08:32:36.928Z,955.9800
2024-04-26T08:33:37.936Z,955.9800
2024-04-26T08:34:40.022Z,956.0000
2024-04-26T08:35:42.454Z,955.9800
2024-04-26T08:36:44.428Z,955.9600
2024-04-26T08:37:46.552Z,955.9400
2024-04-26T08:38:48.936Z,955.9400
2024-04-26T08:39:57.652Z,955.9400
2024-04-26T08:40:52.977Z,955.9600
2024-04-26T08:41:55.178Z,955.9400
2024-04-26T08:42:57.232Z,955.9400
2024-04-26T08:43:59.409Z,955.9600
2024-04-26T08:45:01.645Z,955.9600
2024-04-26T08:46:03.654Z,955.9800
2024-04-26T08:47:05.805Z,955.9800
2024-04-26T08:48:08.325Z,955.9600
2024-04-26T08:49:10.311Z,955.9800
2024-04-26T08:50:12.363Z,956.0000
2024-04-26T08:51:14.685Z,956.0000
2024-04-26T08:52:16.738Z,956.0200
2024-04-26T08:53:18.918Z,955.9800
2024-04-26T08:54:21.459Z,955.9600
2024-04-26T08:55:23.436Z,955.9800
2024-04-26T08:56:25.546Z,955.9800
2024-04-26T08:57:27.657Z,955.9600
2024-04-26T08:58:29.821Z,955.9800
2024-04-26T08:59:32.075Z,955.9800
2024-04-26T09:00:34.324Z,956.0000
2024-04-26T09:01:36.331Z,956.0000
2024-04-26T09:02:38.660Z,956.0400
2024-04-26T09:03:40.871Z,956.0200
2024-04-26T09:04:42.800Z,956.0400
2024-04-26T09:05:44.920Z,956.0200
2024-04-26T09:06:47.122Z,956.0400
2024-04-26T09:07:49.178Z,956.0600
2024-04-26T09:08:51.356Z,956.0400
2024-04-26T09:09:53.492Z,956.0400
2024-04-26T09:10:53.425Z,956.0200
2024-04-26T09:11:55.707Z,956.0000
2024-04-26T09:13:03.825Z,956.0000
2024-04-26T09:13:59.870Z,955.9800
2024-04-26T09:15:02.255Z,956.0000
2024-04-26T09:16:04.228Z,956.0200
2024-04-26T09:17:06.492Z,956.0200
2024-04-26T09:18:08.840Z,956.0000
2024-04-26T09:19:11.020Z,956.0000
2024-04-26T09:20:13.026Z,955.9600
2024-04-26T09:21:16.533Z,955.9600
2024-04-26T09:22:17.353Z,955.9800
2024-04-26T09:23:19.530Z,955.9800
2024-04-26T09:24:21.686Z,955.9600
2024-04-26T09:25:23.868Z,955.9000
2024-04-26T09:26:26.011Z,955.9000
2024-04-26T09:27:28.239Z,955.9200
2024-04-26T09:28:30.280Z,955.9400
2024-04-26T09:29:32.458Z,955.9400
2024-04-26T09:30:34.645Z,955.9400
2024-04-26T09:31:36.823Z,955.9200
2024-04-26T09:32:47.226Z,955.9000
2024-04-26T09:33:41.420Z,955.8800
2024-04-26T09:34:43.570Z,955.9000
2024-04-26T09:35:45.791Z,955.9000
2024-04-26T09:36:47.737Z,955.8600
2024-04-26T09:37:49.808Z,955.8800
2024-04-26T09:38:52.027Z,955.8800
2024-04-26T09:39:54.144Z,955.8800
2024-04-26T09:40:56.319Z,955.9000
2024-04-26T09:41:58.536Z,955.9600
2024-04-26T09:43:00.605Z,955.9200
2024-04-26T09:44:02.771Z,955.9600
2024-04-26T09:45:05.000Z,955.9600
2024-04-26T09:46:07.147Z,955.9200
2024-04-26T09:47:09.294Z,955.9600
2024-04-26T09:48:11.619Z,955.9600
2024-04-26T09:49:13.745Z,955.9400
2024-04-26T09:50:18.235Z,955.9200
2024-04-26T09:51:17.878Z,955.9400
2024-04-26T09:52:19.955Z,955.9200
2024-04-26T09:53:22.063Z,955.9800
2024-04-26T09:54:24.163Z,955.9600
2024-04-26T09:55:26.310Z,956.0000
2024-04-26T09:56:28.466Z,956.0000
2024-04-26T09:57:30.597Z,956.0000
2024-04-26T09:58:32.757Z,955.9800
2024-04-26T09:59:34.966Z,956.0200
2024-04-26T10:00:37.069Z,956.0200
2024-04-26T10:01:39.281Z,955.9800
2024-04-26T10:02:41.614Z,955.9800
2024-04-26T10:03:45.845Z,955.9800
2024-04-26T10:04:43.845Z,955.9800
2024-04-26T10:05:46.075Z,955.9800
2024-04-26T10:06:48.198Z,955.9200
2024-04-26T10:07:50.376Z,955.9600
2024-04-26T10:08:52.607Z,955.9200
2024-04-26T10:09:54.764Z,955.9000
2024-04-26T10:10:57.021Z,955.8800
2024-04-26T10:11:59.351Z,955.9400
2024-04-26T10:13:01.284Z,955.9400
2024-04-26T10:14:03.467Z,955.9400
2024-04-26T10:15:05.779Z,955.9400
2024-04-26T10:16:07.839Z,955.9400
2024-04-26T10:17:10.108Z,955.9600
2024-04-26T10:18:12.414Z,955.9600
2024-04-26T10:19:14.521Z,955.9600
2024-04-26T10:20:16.527Z,955.9600
2024-04-26T10:21:18.682Z,955.9800
2024-04-26T10:22:20.803Z,955.9400
2024-04-26T10:23:22.949Z,955.9600
2024-04-26T10:24:25.079Z,955.9600
2024-04-26T10:25:27.234Z,955.9600
2024-04-26T10:26:29.499Z,955.9200
2024-04-26T10:27:31.640Z,955.9400
2024-04-26T10:28:33.734Z,955.9400
2024-04-26T10:29:35.886Z,955.9200
2024-04-26T10:30:38.014Z,955.9400
2024-04-26T10:31:40.141Z,955.9000
2024-04-26T10:32:42.405Z,955.9200
2024-04-26T10:33:44.611Z,955.8600
2024-04-26T10:34:46.679Z,955.8600
2024-04-26T10:35:48.711Z,955.8600
2024-04-26T10:36:50.768Z,955.8500
2024-04-26T10:37:52.880Z,955.8300
2024-04-26T10:38:55.143Z,955.8300
2024-04-26T10:39:57.150Z,955.8300
2024-04-26T10:40:59.306Z,955.7900
2024-04-26T10:42:01.479Z,955.8100
2024-04-26T10:43:03.569Z,955.8300
2024-04-26T10:44:05.685Z,955.7700
2024-04-26T10:45:08.074Z,955.8100
2024-04-26T10:46:09.996Z,955.8100
2024-04-26T10:47:12.248Z,955.7900
2024-04-26T10:48:14.483Z,955.7900
2024-04-26T10:49:16.724Z,955.7900
2024-04-26T10:50:18.634Z,955.8300
2024-04-26T10:51:20.833Z,955.7700
2024-04-26T10:52:22.888Z,955.7700
2024-04-26T10:53:25.095Z,955.8100
2024-04-26T10:54:27.205Z,955.7900
2024-04-26T10:55:29.369Z,955.7500
2024-04-26T10:56:31.569Z,955.7300
2024-04-26T10:57:33.721Z,955.6900
2024-04-26T10:58:35.811Z,955.6900
2024-04-26T10:59:37.957Z,955.6900
2024-04-26T11:00:40.135Z,955.6900
2024-04-26T11:01:42.192Z,955.6500
2024-04-26T11:02:44.395Z,955.6500
2024-04-26T11:03:46.651Z,955.6900
2024-04-26T11:04:48.640Z,955.6700
2024-04-26T11:05:50.840Z,955.6900
2024-04-26T11:06:52.829Z,955.7100
2024-04-26T11:07:54.983Z,955.6700
2024-04-26T11:08:57.215Z,955.6700
2024-04-26T11:09:59.249Z,955.6700
2024-04-26T11:11:01.375Z,955.6900
2024-04-26T11:12:03.700Z,955.7100
2024-04-26T11:13:05.650Z,955.7100
2024-04-26T11:14:07.764Z,955.7100
2024-04-26T11:15:09.844Z,955.7300
2024-04-26T11:16:11.875Z,955.7700
2024-04-26T11:17:13.968Z,955.7900
2024-04-26T11:18:16.214Z,955.7700
2024-04-26T11:19:18.531Z,955.7700
2024-04-26T11:20:20.221Z,955.7500
2024-04-26T11:21:22.254Z,955.7300
2024-04-26T11:22:24.370Z,955.7500
2024-04-26T11:23:26.512Z,955.7700
2024-04-26T11:24:28.552Z,955.7900
2024-04-26T11:25:30.501Z,955.7700
2024-04-26T11:26:32.586Z,955.7700
2024-04-26T11:27:34.616Z,955.7900
2024-04-26T11:28:36.794Z,955.8100
2024-04-26T11:29:39.112Z,955.8100
2024-04-26T11:30:41.168Z,955.7500
2024-04-26T11:31:43.381Z,955.7300
2024-04-26T11:32:45.634Z,955.7500
2024-04-26T11:33:47.920Z,955.7700
2024-04-26T11:34:50.181Z,955.7500
2024-04-26T11:35:52.148Z,955.7500
2024-04-26T11:36:54.318Z,955.7900
2024-04-26T11:37:56.486Z,955.8300
2024-04-26T11:38:58.719Z,955.8300
2024-04-26T11:40:00.940Z,955.8300
2024-04-26T11:41:03.096Z,955.8800
2024-04-26T11:42:05.379Z,955.8500
2024-04-26T11:43:07.505Z,955.8500
2024-04-26T11:44:09.661Z,955.8500
2024-04-26T11:45:11.953Z,955.8800
2024-04-26T11:46:13.942Z,955.8800
2024-04-26T11:47:16.088Z,955.9200
2024-04-26T11:48:18.384Z,955.8800
2024-04-26T11:49:20.581Z,955.8800
2024-04-26T11:50:22.552Z,955.9000
2024-04-26T11:51:24.717Z,955.8800
2024-04-26T11:52:26.784Z,955.8800
2024-04-26T11:53:29.046Z,955.9200
2024-04-26T11:54:31.106Z,955.9000
2024-04-26T11:55:33.319Z,955.9600
2024-04-26T11:56:35.662Z,955.9600
2024-04-26T11:57:37.586Z,955.9400
2024-04-26T11:58:39.764Z,955.9400
2024-04-26T11:59:41.961Z,955.9200
2024-04-26T12:00:44.197Z,955.9000
2024-04-26T12:01:46.199Z,955.8800
2024-04-26T12:02:48.354Z,955.9200
2024-04-26T12:03:50.464Z,955.9000
2024-04-26T12:04:52.731Z,955.9000
2024-04-26T12:05:54.711Z,955.8600
2024-04-26T12:06:56.710Z,955.9000
2024-04-26T12:07:58.799Z,955.8800
2024-04-26T12:09:00.965Z,955.9000